Time;durP1;ratioP1;P1;durP2;ratioP2;P2;SDS_P1;SDS_P2;PMS_P1;PMS_P2;Temp;Humidity;BMP_temperature;BMP_pressure;BME280_temperature;BME280_humidity;BME280_pressure;Samples;Min_cycle;Max_cycle;Signal;HPM_P1;HPM_P2
2022/07/13 00:00:23;;;;;;;2.75;1.30;;;15.10;93.50;;;;;;5113826;27;21524;-65
2022/07/13 00:02:49;;;;;;;2.88;1.20;;;15.10;93.40;;;;;;5111903;27;20132;-65
2022/07/13 00:05:15;;;;;;;2.50;1.00;;;15.10;93.30;;;;;;5121283;27;20115;-65
2022/07/13 00:07:40;;;;;;;3.78;1.20;;;15.10;93.30;;;;;;5121249;27;20044;-64
2022/07/13 00:10:06;;;;;;;2.65;1.05;;;15.00;93.60;;;;;;5112994;27;20023;-65
2022/07/13 00:12:32;;;;;;;2.88;0.93;;;14.90;93.60;;;;;;5114187;27;20020;-65
2022/07/13 00:14:58;;;;;;;2.88;1.20;;;14.90;93.80;;;;;;5117402;27;20409;-65
2022/07/13 00:17:23;;;;;;;3.50;1.10;;;14.80;93.90;;;;;;5114691;27;20642;-65
2022/07/13 00:19:49;;;;;;;1.98;1.05;;;14.80;94.10;;;;;;5117533;27;20298;-65
2022/07/13 00:22:15;;;;;;;2.75;1.30;;;14.70;94.10;;;;;;5119036;27;20496;-65
2022/07/13 00:24:40;;;;;;;1.85;1.08;;;14.70;94.30;;;;;;5111205;27;20038;-64
2022/07/13 00:27:09;;;;;;;2.08;1.00;;;14.70;94.10;;;;;;5114838;27;20054;-64
2022/07/13 00:29:35;;;;;;;2.97;1.30;;;14.70;94.10;;;;;;5115392;27;20024;-64
2022/07/13 00:32:00;;;;;;;3.85;1.30;;;14.80;93.90;;;;;;5115694;27;20326;-64
2022/07/13 00:34:26;;;;;;;1.88;1.10;;;14.70;93.90;;;;;;5118585;27;20058;-63
2022/07/13 00:36:52;;;;;;;1.95;1.02;;;14.70;93.70;;;;;;5110136;27;20028;-64
2022/07/13 00:39:17;;;;;;;2.58;1.30;;;14.70;93.90;;;;;;5115803;27;20038;-64
2022/07/13 00:41:47;;;;;;;3.00;1.10;;;14.70;93.90;;;;;;5115979;27;20080;-63
2022/07/13 00:44:13;;;;;;;2.20;1.05;;;14.60;94.20;;;;;;5107544;27;20032;-64
2022/07/13 00:46:44;;;;;;;3.15;1.30;;;14.50;94.30;;;;;;5110658;27;20050;-64
2022/07/13 00:49:10;;;;;;;1.88;1.10;;;14.40;94.50;;;;;;5111790;27;20498;-64
2022/07/13 00:51:37;;;;;;;3.47;1.33;;;14.40;94.50;;;;;;5112604;27;20058;-64
2022/07/13 00:54:03;;;;;;;2.22;1.25;;;14.40;94.50;;;;;;5117068;27;20370;-64
2022/07/13 00:56:30;;;;;;;2.13;1.30;;;14.40;94.40;;;;;;5116576;27;20016;-64
2022/07/13 00:58:58;;;;;;;1.48;0.95;;;14.40;94.20;;;;;;5112252;28;20024;-64
2022/07/13 01:01:27;;;;;;;1.83;1.10;;;14.50;94.00;;;;;;5119846;27;20058;-64
2022/07/13 01:03:53;;;;;;;2.67;1.27;;;14.60;93.80;;;;;;5121718;27;20407;-63
2022/07/13 01:06:21;;;;;;;1.88;1.10;;;14.60;93.60;;;;;;5113757;27;20076;-63
2022/07/13 01:08:47;;;;;;;2.58;1.20;;;14.60;93.40;;;;;;5114826;27;20093;-65
2022/07/13 01:11:13;;;;;;;3.00;1.15;;;14.70;93.30;;;;;;5112640;27;20028;-63
2022/07/13 01:13:39;;;;;;;1.98;1.15;;;14.70;93.10;;;;;;5111606;27;20038;-65
2022/07/13 01:16:07;;;;;;;4.95;1.20;;;14.70;92.90;;;;;;5110326;27;20425;-65
2022/07/13 01:18:33;;;;;;;4.18;1.10;;;14.60;93.20;;;;;;5108945;27;20031;-64
2022/07/13 01:21:02;;;;;;;3.67;1.38;;;14.50;93.50;;;;;;5110745;27;20023;-64
2022/07/13 01:23:28;;;;;;;2.20;1.05;;;14.50;93.80;;;;;;5111883;27;20027;-65
2022/07/13 01:25:56;;;;;;;7.03;1.23;;;14.40;93.90;;;;;;5103928;27;20040;-64
2022/07/13 01:28:23;;;;;;;2.28;1.10;;;14.40;93.90;;;;;;5108017;27;20371;-63
2022/07/13 01:30:49;;;;;;;4.43;1.30;;;14.40;94.00;;;;;;5109826;27;20015;-65
2022/07/13 01:33:15;;;;;;;2.25;1.20;;;14.40;93.90;;;;;;5110142;27;20085;-64
2022/07/13 01:35:41;;;;;;;2.33;1.15;;;14.30;94.00;;;;;;5111773;27;20024;-65
2022/07/13 01:38:07;;;;;;;1.50;1.10;;;14.30;94.00;;;;;;5111315;27;20032;-65
2022/07/13 01:40:32;;;;;;;2.50;1.10;;;14.30;94.00;;;;;;5112180;27;20079;-63
2022/07/13 01:42:58;;;;;;;1.90;1.23;;;14.20;94.10;;;;;;5110564;27;20030;-64
2022/07/13 01:45:27;;;;;;;1.83;1.05;;;14.10;94.50;;;;;;5114104;27;20079;-63
2022/07/13 01:47:55;;;;;;;1.90;1.20;;;14.00;94.70;;;;;;5103889;27;20023;-64
2022/07/13 01:50:22;;;;;;;3.50;1.40;;;13.90;94.90;;;;;;5122961;27;20031;-64
2022/07/13 01:52:48;;;;;;;2.00;1.13;;;13.90;95.00;;;;;;5112094;27;20319;-64
2022/07/13 01:55:15;;;;;;;1.95;1.15;;;13.80;95.00;;;;;;5110432;27;20028;-64
2022/07/13 01:57:41;;;;;;;3.00;1.33;;;13.70;95.30;;;;;;5111043;27;20055;-64
2022/07/13 02:00:11;;;;;;;2.90;1.30;;;13.60;95.70;;;;;;5108817;27;20106;-63
2022/07/13 02:02:37;;;;;;;4.07;1.40;;;13.50;96.00;;;;;;5110014;27;20084;-64
2022/07/13 02:05:03;;;;;;;3.17;1.27;;;13.40;96.40;;;;;;5115170;27;20027;-64
2022/07/13 02:07:29;;;;;;;3.45;1.42;;;13.30;96.40;;;;;;5108626;27;20042;-63
2022/07/13 02:09:54;;;;;;;1.75;1.20;;;13.20;96.60;;;;;;5106353;27;20032;-63
2022/07/13 02:12:23;;;;;;;2.60;1.58;;;13.20;96.70;;;;;;5111766;27;20043;-64
2022/07/13 02:14:49;;;;;;;2.67;1.40;;;13.10;96.80;;;;;;5110371;27;20127;-63
2022/07/13 02:17:17;;;;;;;2.50;1.10;;;13.10;96.90;;;;;;5107341;27;20539;-64
2022/07/13 02:19:46;;;;;;;4.05;1.40;;;13.00;97.00;;;;;;5112396;28;20042;-64
2022/07/13 02:22:11;;;;;;;2.25;1.30;;;13.00;97.10;;;;;;5120321;27;20023;-64
2022/07/13 02:24:37;;;;;;;4.22;1.40;;;13.00;97.10;;;;;;5106819;27;20112;-64
2022/07/13 02:27:03;;;;;;;4.55;1.30;;;13.00;97.10;;;;;;5115271;27;20375;-65
2022/07/13 02:29:28;;;;;;;3.53;1.30;;;13.00;97.20;;;;;;5114125;27;20047;-64
2022/07/13 02:31:54;;;;;;;2.40;1.30;;;13.00;97.10;;;;;;5124592;27;20367;-63
2022/07/13 02:34:21;;;;;;;2.85;1.30;;;13.00;97.20;;;;;;5109958;27;20035;-65
2022/07/13 02:36:47;;;;;;;4.53;1.55;;;13.00;97.10;;;;;;5114178;27;20019;-64
2022/07/13 02:39:13;;;;;;;4.82;1.60;;;13.10;96.90;;;;;;5108880;27;20023;-65
2022/07/13 02:41:39;;;;;;;3.25;1.50;;;13.20;96.60;;;;;;5113556;27;20030;-64
2022/07/13 02:44:04;;;;;;;2.42;1.40;;;13.30;96.20;;;;;;5114673;28;20028;-63
2022/07/13 02:46:30;;;;;;;9.23;1.88;;;13.40;96.00;;;;;;5116116;27;20046;-64
2022/07/13 02:48:55;;;;;;;2.25;1.40;;;13.50;95.70;;;;;;5113358;28;20024;-63
2022/07/13 02:51:21;;;;;;;5.25;1.55;;;13.50;95.70;;;;;;5115132;28;20023;-64
2022/07/13 02:53:47;;;;;;;3.85;1.65;;;13.50;95.70;;;;;;5112658;27;20156;-64
2022/07/13 02:56:12;;;;;;;3.22;1.50;;;13.50;95.70;;;;;;5122336;27;20443;-64
2022/07/13 02:58:38;;;;;;;2.85;1.40;;;13.60;95.50;;;;;;5114914;27;20027;-64
2022/07/13 03:01:04;;;;;;;4.32;1.55;;;13.60;95.40;;;;;;5118854;27;20023;-64
2022/07/13 03:03:29;;;;;;;3.25;1.50;;;13.60;95.40;;;;;;5110652;27;20035;-65
2022/07/13 03:05:57;;;;;;;3.58;1.40;;;13.50;95.50;;;;;;5111879;28;20028;-64
2022/07/13 03:08:23;;;;;;;2.33;1.38;;;13.50;95.40;;;;;;5118559;27;20032;-64
2022/07/13 03:10:49;;;;;;;4.07;1.60;;;13.40;95.50;;;;;;5108815;28;20039;-64
2022/07/13 03:13:15;;;;;;;3.60;1.48;;;13.40;95.60;;;;;;5110026;28;21501;-63
2022/07/13 03:15:40;;;;;;;2.72;1.40;;;13.30;95.60;;;;;;5110179;27;20061;-64
2022/07/13 03:18:07;;;;;;;3.17;1.50;;;13.30;96.00;;;;;;5112178;27;20108;-64
2022/07/13 03:20:34;;;;;;;2.20;1.30;;;13.20;96.10;;;;;;5111802;27;20352;-64
2022/07/13 03:23:03;;;;;;;4.05;1.55;;;13.10;96.40;;;;;;5110786;28;21517;-66
2022/07/13 03:25:29;;;;;;;2.72;1.42;;;13.00;96.70;;;;;;5111158;28;20430;-64
2022/07/13 03:27:54;;;;;;;4.22;1.40;;;12.90;96.70;;;;;;5108551;28;20035;-64
2022/07/13 03:30:20;;;;;;;3.80;1.60;;;12.90;96.90;;;;;;5112327;28;20147;-63
2022/07/13 03:32:46;;;;;;;2.83;1.60;;;12.90;97.00;;;;;;5112168;28;20024;-64
2022/07/13 03:35:12;;;;;;;2.95;1.60;;;12.80;97.00;;;;;;5117762;28;20076;-63
2022/07/13 03:37:37;;;;;;;3.28;1.60;;;12.80;97.10;;;;;;5118482;28;20931;-63
2022/07/13 03:40:04;;;;;;;2.40;1.40;;;12.90;97.20;;;;;;5106421;28;20031;-64
2022/07/13 03:42:30;;;;;;;4.15;1.50;;;12.90;97.00;;;;;;5118688;28;20034;-64
2022/07/13 03:44:58;;;;;;;2.47;1.42;;;13.00;97.00;;;;;;5111502;28;20318;-64
2022/07/13 03:47:24;;;;;;;2.75;1.40;;;12.90;97.10;;;;;;5113577;28;20028;-64
2022/07/13 03:49:49;;;;;;;4.40;1.67;;;13.00;97.10;;;;;;5115836;28;20423;-64
2022/07/13 03:52:15;;;;;;;4.32;1.50;;;13.10;97.00;;;;;;5110361;28;20088;-63
2022/07/13 03:54:43;;;;;;;3.17;1.63;;;13.10;96.90;;;;;;5112146;28;20096;-64
2022/07/13 03:57:09;;;;;;;3.25;1.70;;;13.20;96.90;;;;;;5123320;28;20317;-63
2022/07/13 03:59:35;;;;;;;2.58;1.45;;;13.20;96.80;;;;;;5120521;28;20027;-63
2022/07/13 04:02:00;;;;;;;6.35;1.73;;;13.30;96.60;;;;;;5113593;28;20302;-63
2022/07/13 04:04:28;;;;;;;2.53;1.50;;;13.20;96.60;;;;;;5112757;28;20475;-66
2022/07/13 04:06:54;;;;;;;3.78;1.67;;;13.20;96.90;;;;;;5106882;28;20024;-66
2022/07/13 04:09:20;;;;;;;2.85;1.50;;;13.10;96.80;;;;;;5109250;28;20083;-64
2022/07/13 04:11:45;;;;;;;4.65;1.50;;;13.10;97.00;;;;;;5108818;28;20023;-62
2022/07/13 04:14:11;;;;;;;2.50;1.30;;;13.00;97.30;;;;;;5116336;28;20107;-63
2022/07/13 04:16:37;;;;;;;3.70;1.40;;;13.10;97.00;;;;;;5108867;28;20030;-62
2022/07/13 04:19:02;;;;;;;3.17;1.60;;;13.30;97.20;;;;;;5119764;27;20069;-64
2022/07/13 04:21:28;;;;;;;3.47;1.50;;;13.40;97.00;;;;;;5114382;27;20022;-65
2022/07/13 04:23:53;;;;;;;2.38;1.40;;;13.30;97.00;;;;;;5109704;27;20443;-64
2022/07/13 04:26:19;;;;;;;3.05;1.50;;;13.30;97.00;;;;;;5112884;27;20056;-64
2022/07/13 04:28:45;;;;;;;6.28;1.50;;;13.30;97.00;;;;;;5115810;27;20308;-65
2022/07/13 04:31:11;;;;;;;2.25;1.30;;;13.40;97.00;;;;;;5114254;27;20028;-64
2022/07/13 04:33:36;;;;;;;2.75;1.40;;;13.40;96.70;;;;;;5115350;27;20031;-64
2022/07/13 04:36:02;;;;;;;2.75;1.50;;;13.60;96.50;;;;;;5117281;27;20019;-64
2022/07/13 04:38:28;;;;;;;3.38;1.50;;;13.60;96.40;;;;;;5110260;28;20088;-64
2022/07/13 04:40:53;;;;;;;7.93;1.83;;;13.60;96.50;;;;;;5113946;27;20096;-63
2022/07/13 04:43:19;;;;;;;3.03;1.50;;;13.60;96.60;;;;;;5120081;27;20027;-64
2022/07/13 04:45:47;;;;;;;3.45;1.60;;;13.70;96.70;;;;;;5112315;27;20127;-63
2022/07/13 04:48:13;;;;;;;2.83;1.35;;;13.70;96.50;;;;;;5112977;27;20027;-64
2022/07/13 04:50:38;;;;;;;3.35;1.50;;;13.70;96.90;;;;;;5114688;27;20038;-64
2022/07/13 04:53:04;;;;;;;3.17;1.50;;;13.70;96.70;;;;;;5110628;27;20032;-63
2022/07/13 04:55:30;;;;;;;2.45;1.42;;;13.80;96.70;;;;;;5112980;27;20039;-64
2022/07/13 04:57:57;;;;;;;2.25;1.00;;;13.80;96.90;;;;;;5115889;27;20046;-64
2022/07/13 05:00:23;;;;;;;9.95;7.57;;;13.90;96.80;;;;;;5117042;27;20165;-64
2022/07/13 05:02:51;;;;;;;2.97;1.60;;;14.00;96.60;;;;;;5122504;27;20046;-63
2022/07/13 05:05:17;;;;;;;2.35;1.20;;;14.10;96.10;;;;;;5110845;27;20158;-64
2022/07/13 05:07:42;;;;;;;3.30;1.40;;;14.10;96.60;;;;;;5110793;27;20119;-63
2022/07/13 05:10:08;;;;;;;3.55;1.33;;;14.30;96.00;;;;;;5115783;27;20026;-63
2022/07/13 05:12:42;;;;;;;2.53;1.30;;;14.50;95.50;;;;;;5124628;27;20036;-63
2022/07/13 05:15:09;;;;;;;2.88;1.02;;;14.70;94.30;;;;;;5112617;27;20363;-64
2022/07/13 05:17:35;;;;;;;6.75;1.25;;;15.20;92.70;;;;;;5112322;27;20031;-64
2022/07/13 05:20:06;;;;;;;3.65;0.90;;;15.70;91.30;;;;;;5111816;27;20039;-64
2022/07/13 05:22:32;;;;;;;2.40;1.00;;;16.10;88.80;;;;;;5111022;27;20052;-63
2022/07/13 05:24:59;;;;;;;7.55;1.50;;;16.70;86.60;;;;;;5100628;28;20105;-63
2022/07/13 05:27:24;;;;;;;2.28;1.15;;;17.00;86.10;;;;;;5099036;27;20027;-64
2022/07/13 05:29:50;;;;;;;2.63;0.98;;;17.20;84.30;;;;;;5111776;27;20027;-63
2022/07/13 05:32:16;;;;;;;2.13;0.90;;;17.60;83.70;;;;;;5114713;27;20028;-63
2022/07/13 05:34:42;;;;;;;2.28;1.00;;;17.80;83.50;;;;;;5111401;27;20373;-64
2022/07/13 05:37:07;;;;;;;2.63;1.00;;;18.10;82.30;;;;;;5114490;27;20103;-64
2022/07/13 05:39:33;;;;;;;4.40;0.90;;;18.30;81.40;;;;;;5114829;27;20483;-63
2022/07/13 05:41:59;;;;;;;2.88;0.80;;;18.30;82.90;;;;;;5115110;27;20098;-64
2022/07/13 05:44:24;;;;;;;4.20;0.80;;;18.30;82.90;;;;;;5114691;27;20134;-63
2022/07/13 05:46:50;;;;;;;2.65;1.10;;;18.30;83.10;;;;;;5118755;27;20038;-63
2022/07/13 05:49:16;;;;;;;6.10;1.80;;;18.30;83.40;;;;;;5121362;27;20020;-64
2022/07/13 05:51:42;;;;;;;4.88;2.05;;;18.10;85.60;;;;;;5124683;27;20386;-64
2022/07/13 05:54:07;;;;;;;5.60;1.85;;;17.90;86.30;;;;;;5125234;27;20094;-64
2022/07/13 05:56:35;;;;;;;3.67;1.27;;;17.70;87.20;;;;;;5121575;27;20091;-64
2022/07/13 05:59:01;;;;;;;2.72;1.30;;;17.60;87.10;;;;;;5116234;27;20321;-64
2022/07/13 06:01:26;;;;;;;3.58;1.40;;;17.50;87.80;;;;;;5117463;27;20024;-63
2022/07/13 06:03:52;;;;;;;3.03;1.30;;;17.50;87.90;;;;;;5118878;27;20579;-63
2022/07/13 06:06:18;;;;;;;3.13;1.40;;;17.30;87.80;;;;;;5116220;27;20078;-64
2022/07/13 06:08:43;;;;;;;5.88;1.48;;;17.20;87.60;;;;;;5119692;27;20028;-64
2022/07/13 06:11:11;;;;;;;4.45;1.35;;;17.10;87.50;;;;;;5114749;27;20084;-64
2022/07/13 06:13:37;;;;;;;3.13;1.40;;;17.20;87.90;;;;;;5124319;27;20556;-64
2022/07/13 06:16:03;;;;;;;2.70;1.50;;;17.30;87.70;;;;;;5107509;28;20024;-64
2022/07/13 06:18:29;;;;;;;4.28;1.52;;;17.40;87.70;;;;;;5113695;28;20379;-64
2022/07/13 06:20:55;;;;;;;3.15;1.42;;;17.50;87.70;;;;;;5114334;27;20111;-64
2022/07/13 06:23:21;;;;;;;3.00;1.50;;;17.70;87.40;;;;;;5119197;27;20026;-64
2022/07/13 06:25:47;;;;;;;3.67;1.60;;;17.80;86.90;;;;;;5109481;27;20020;-64
2022/07/13 06:28:13;;;;;;;2.90;1.50;;;18.00;86.60;;;;;;5117575;27;20076;-63
2022/07/13 06:30:39;;;;;;;2.42;1.25;;;18.10;85.90;;;;;;5114099;28;20100;-64
2022/07/13 06:33:05;;;;;;;2.85;1.38;;;18.20;85.70;;;;;;5117057;28;20083;-64
2022/07/13 06:35:32;;;;;;;4.18;1.75;;;18.40;85.20;;;;;;5111511;27;20103;-64
2022/07/13 06:37:58;;;;;;;5.20;1.90;;;18.50;84.60;;;;;;5119729;27;20105;-64
2022/07/13 06:40:24;;;;;;;3.33;1.70;;;18.60;84.80;;;;;;5118252;27;20034;-64
2022/07/13 06:42:50;;;;;;;3.78;1.50;;;18.80;83.60;;;;;;5119355;27;20023;-64
2022/07/13 06:45:16;;;;;;;2.83;1.40;;;19.10;83.50;;;;;;5115479;27;20122;-64
2022/07/13 06:47:42;;;;;;;3.70;1.80;;;19.20;82.40;;;;;;5110692;28;20446;-64
2022/07/13 06:50:12;;;;;;;6.38;1.80;;;19.40;82.50;;;;;;5111153;28;20080;-63
2022/07/13 06:52:40;;;;;;;3.63;2.03;;;19.60;83.10;;;;;;5115204;27;20024;-63
2022/07/13 06:55:07;;;;;;;4.07;1.70;;;19.70;83.60;;;;;;5113422;28;20047;-63
2022/07/13 06:57:36;;;;;;;6.75;1.58;;;19.80;84.50;;;;;;5112335;28;20023;-63
2022/07/13 07:00:04;;;;;;;3.38;1.35;;;19.60;85.10;;;;;;5115517;27;20172;-64
2022/07/13 07:02:29;;;;;;;3.08;1.55;;;19.50;84.70;;;;;;5111115;27;20019;-66
2022/07/13 07:04:58;;;;;;;4.18;1.90;;;19.40;85.10;;;;;;5118102;27;20329;-64
2022/07/13 07:07:24;;;;;;;5.00;1.70;;;19.40;85.60;;;;;;5111925;27;20139;-63
2022/07/13 07:09:49;;;;;;;4.90;1.92;;;19.50;85.60;;;;;;5105540;28;20118;-64
2022/07/13 07:12:16;;;;;;;3.47;1.70;;;19.70;85.50;;;;;;5105705;28;20039;-64
2022/07/13 07:14:41;;;;;;;5.03;1.70;;;20.00;83.60;;;;;;5110478;28;20015;-64
2022/07/13 07:17:07;;;;;;;4.65;1.80;;;20.20;83.90;;;;;;5113386;28;20031;-63
2022/07/13 07:19:33;;;;;;;4.95;1.85;;;20.40;82.90;;;;;;5116634;27;20031;-64
2022/07/13 07:21:58;;;;;;;4.65;1.52;;;20.50;82.50;;;;;;5110801;28;20027;-64
2022/07/13 07:24:24;;;;;;;4.13;1.45;;;20.50;82.00;;;;;;5109581;28;20039;-62
2022/07/13 07:26:53;;;;;;;4.07;1.63;;;20.90;81.30;;;;;;5117077;28;20096;-64
2022/07/13 07:29:19;;;;;;;3.25;1.70;;;21.30;80.80;;;;;;5120112;28;20019;-64
2022/07/13 07:31:45;;;;;;;4.97;1.50;;;21.80;79.30;;;;;;5115219;28;20330;-63
2022/07/13 07:34:11;;;;;;;3.47;1.10;;;22.50;78.00;;;;;;5121274;28;20051;-65
2022/07/13 07:36:36;;;;;;;4.00;1.17;;;23.80;72.10;;;;;;5115241;28;20487;-65
2022/07/13 07:39:02;;;;;;;3.28;0.80;;;25.70;67.60;;;;;;5111867;28;20383;-64
2022/07/13 07:41:28;;;;;;;1.83;0.80;;;27.60;62.50;;;;;;5114990;28;20030;-64
2022/07/13 07:43:56;;;;;;;3.75;0.70;;;28.60;59.50;;;;;;5117652;28;20027;-64
2022/07/13 07:46:22;;;;;;;2.97;0.80;;;28.80;55.30;;;;;;5114551;28;20055;-64
2022/07/13 07:48:48;;;;;;;2.50;0.80;;;28.50;56.00;;;;;;5114990;28;20024;-64
2022/07/13 07:51:14;;;;;;;3.97;0.73;;;28.30;55.20;;;;;;5115372;27;20318;-64
2022/07/13 07:53:40;;;;;;;4.78;0.95;;;28.50;54.60;;;;;;5118726;27;20108;-64
2022/07/13 07:56:06;;;;;;;3.70;0.82;;;28.80;54.00;;;;;;5118818;27;20106;-75
2022/07/13 07:58:31;;;;;;;4.65;0.90;;;29.00;55.20;;;;;;5125487;27;20038;-69
2022/07/13 08:00:57;;;;;;;2.00;0.70;;;28.50;55.40;;;;;;5115215;27;20051;-64
2022/07/13 08:03:23;;;;;;;1.67;0.65;;;27.90;55.40;;;;;;5116003;28;20055;-63
2022/07/13 08:05:51;;;;;;;3.03;0.80;;;27.40;55.60;;;;;;5109771;27;20027;-64
2022/07/13 08:08:17;;;;;;;3.15;0.90;;;27.30;56.70;;;;;;5118352;27;20042;-62
2022/07/13 08:10:43;;;;;;;3.47;0.90;;;27.30;56.10;;;;;;5124845;27;20409;-65
2022/07/13 08:13:09;;;;;;;5.97;0.77;;;27.70;56.60;;;;;;5114861;27;20027;-64
2022/07/13 08:15:35;;;;;;;5.80;0.80;;;28.60;54.30;;;;;;5112000;28;20069;-65
2022/07/13 08:18:01;;;;;;;2.78;0.73;;;28.50;53.80;;;;;;5103001;28;20024;-64
2022/07/13 08:20:27;;;;;;;4.85;0.85;;;28.50;54.50;;;;;;5097876;28;20059;-64
2022/07/13 08:22:52;;;;;;;5.05;0.90;;;29.00;54.90;;;;;;5105414;27;20037;-64
2022/07/13 08:25:18;;;;;;;3.13;0.77;;;29.40;54.10;;;;;;5100799;27;20053;-64
2022/07/13 08:27:44;;;;;;;8.55;1.02;;;29.60;52.90;;;;;;5095436;28;20035;-64
2022/07/13 08:30:11;;;;;;;3.53;0.60;;;30.10;51.70;;;;;;5102703;27;20380;-64
2022/07/13 08:32:37;;;;;;;4.35;0.68;;;30.50;51.30;;;;;;5101612;27;20031;-63
2022/07/13 08:40:34;;;;;;;1.95;0.60;;;30.30;50.30;;;;;;5096151;27;20100;-64
2022/07/13 08:43:00;;;;;;;2.08;0.70;;;31.60;49.80;;;;;;5094744;27;20072;-64
2022/07/13 08:45:26;;;;;;;2.35;0.65;;;32.20;47.70;;;;;;5120492;27;20050;-64
2022/07/13 08:47:52;;;;;;;1.38;0.70;;;31.90;48.40;;;;;;5128913;27;20106;-63
2022/07/13 08:50:20;;;;;;;4.45;0.75;;;32.10;47.00;;;;;;5122294;27;20031;-64
2022/07/13 08:52:49;;;;;;;2.00;0.60;;;31.70;48.00;;;;;;5114257;27;20411;-64
2022/07/13 08:55:17;;;;;;;4.40;0.63;;;31.80;49.20;;;;;;5115721;27;20039;-64
2022/07/13 08:57:42;;;;;;;3.80;0.93;;;32.10;47.50;;;;;;5117132;27;20348;-63
2022/07/13 09:00:11;;;;;;;4.22;0.75;;;32.80;47.50;;;;;;5121074;27;20038;-64
2022/07/13 09:02:38;;;;;;;3.85;0.50;;;33.80;45.50;;;;;;5115893;28;20106;-63
2022/07/13 09:05:07;;;;;;;1.70;0.60;;;34.30;43.90;;;;;;5113522;27;20074;-63
2022/07/13 09:07:37;;;;;;;4.95;0.90;;;34.70;43.10;;;;;;5115009;28;20032;-63
2022/07/13 09:10:04;;;;;;;2.97;0.68;;;34.80;45.60;;;;;;5111403;27;20023;-63
2022/07/13 09:12:30;;;;;;;2.40;0.70;;;33.70;43.20;;;;;;5114372;27;20427;-64
2022/07/13 09:15:07;;;;;;;2.10;0.82;;;33.00;45.60;;;;;;5116843;28;20411;-63
2022/07/13 09:17:42;;;;;;;2.53;0.95;;;32.80;53.80;;;;;;5106142;27;20019;-64
2022/07/13 09:20:15;;;;;;;4.20;1.25;;;32.50;55.60;;;;;;5132309;27;20096;-64
2022/07/13 09:22:57;;;;;;;4.65;1.40;;;32.50;56.10;;;;;;5115580;28;20435;-64
2022/07/13 09:25:29;;;;;;;3.03;0.93;;;33.00;55.00;;;;;;5113993;28;20066;-64
2022/07/13 09:27:55;;;;;;;8.35;0.90;;;32.50;55.50;;;;;;5124314;27;20031;-63
2022/07/13 09:30:23;;;;;;;3.50;1.23;;;31.40;55.80;;;;;;5116856;28;20080;-64
2022/07/13 09:32:53;;;;;;;5.57;1.10;;;31.20;58.20;;;;;;5131930;27;20034;-63
2022/07/13 09:35:20;;;;;;;2.88;0.90;;;30.80;57.80;;;;;;5112531;28;20068;-62
2022/07/13 09:37:47;;;;;;;2.50;0.90;;;31.20;57.30;;;;;;5102116;28;20031;-63
2022/07/13 09:40:17;;;;;;;2.58;1.15;;;31.80;56.10;;;;;;5115545;28;20036;-63
2022/07/13 09:46:08;;;;;;;3.45;1.00;;;32.30;54.80;;;;;;5116119;27;20442;-63
2022/07/13 09:48:30;;;;;;;6.00;1.30;;;32.10;55.30;;;;;;5128979;27;20107;-63
2022/07/13 09:50:56;;;;;;;3.15;0.80;;;31.10;57.40;;;;;;5114608;28;20698;-63
2022/07/13 09:53:27;;;;;;;3.45;0.80;;;31.90;57.00;;;;;;5114210;27;20110;-65
2022/07/13 09:55:55;;;;;;;4.85;0.80;;;32.60;54.20;;;;;;5115602;27;20022;-64
2022/07/13 09:58:41;;;;;;;2.63;0.75;;;32.80;54.50;;;;;;5117608;27;20087;-63
2022/07/13 10:01:07;;;;;;;2.63;0.90;;;33.10;53.90;;;;;;5117623;27;20340;-63
2022/07/13 10:03:32;;;;;;;2.28;0.90;;;32.40;54.30;;;;;;5117108;28;20030;-64
2022/07/13 10:06:01;;;;;;;3.53;1.00;;;32.50;53.80;;;;;;5114447;28;20027;-64
2022/07/13 10:08:29;;;;;;;2.20;0.90;;;32.30;55.80;;;;;;5112885;28;20032;-65
2022/07/13 10:10:55;;;;;;;1.90;0.80;;;32.90;54.80;;;;;;5114945;27;20027;-64
2022/07/13 10:13:21;;;;;;;3.03;0.80;;;33.20;53.60;;;;;;5114389;28;20031;-64
2022/07/13 10:16:00;;;;;;;1.35;0.70;;;33.80;52.40;;;;;;5113730;27;20487;-64
2022/07/13 10:18:32;;;;;;;2.95;0.80;;;33.60;52.10;;;;;;5111165;27;20123;-65
2022/07/13 10:21:14;;;;;;;3.35;0.90;;;33.10;52.60;;;;;;5118053;27;20035;-65
2022/07/13 10:23:41;;;;;;;2.23;0.73;;;32.70;54.10;;;;;;5118811;27;20023;-65
2022/07/13 10:26:28;;;;;;;2.17;0.85;;;33.00;53.50;;;;;;5114249;28;20059;-64
2022/07/13 10:29:27;;;;;;;3.30;0.93;;;33.20;51.40;;;;;;5116398;27;20031;-64
2022/07/13 10:32:01;;;;;;;3.65;1.15;;;32.90;53.40;;;;;;5116158;28;20023;-65
2022/07/13 10:34:57;;;;;;;;;;;33.00;52.50;;;;;;5111942;28;20360;-63
2022/07/13 10:37:24;;;;;;;2.90;1.10;;;33.40;52.10;;;;;;5095561;28;19907;-63
2022/07/13 10:40:12;;;;;;;2.95;0.70;;;33.50;51.70;;;;;;5114008;28;20072;-63
2022/07/13 10:42:53;;;;;;;2.80;0.80;;;32.90;52.10;;;;;;5114083;28;20080;-64
2022/07/13 10:48:21;;;;;;;3.55;0.90;;;31.80;54.60;;;;;;5113113;28;20064;-66
2022/07/13 10:50:52;;;;;;;3.83;0.98;;;32.10;54.10;;;;;;5114529;28;20518;-65
2022/07/13 10:53:19;;;;;;;4.63;0.85;;;32.60;52.80;;;;;;5115585;28;20035;-64
2022/07/13 10:55:52;;;;;;;4.18;0.80;;;32.80;51.20;;;;;;5112743;28;20036;-63
2022/07/13 10:58:29;;;;;;;4.10;0.80;;;32.40;52.80;;;;;;5113131;28;20122;-63
2022/07/13 11:01:24;;;;;;;6.72;0.82;;;32.60;53.40;;;;;;5116316;27;20084;-64
2022/07/13 11:03:50;;;;;;;3.72;0.80;;;33.40;50.00;;;;;;5113566;27;20081;-64
2022/07/13 11:06:23;;;;;;;2.30;0.70;;;34.00;49.40;;;;;;5125235;27;20463;-64
2022/07/13 11:09:08;;;;;;;;;;;34.30;49.30;;;;;;5112955;28;20063;-63
2022/07/13 11:11:33;;;;;;;3.10;0.90;;;34.20;48.90;;;;;;5116618;27;20185;-64
2022/07/13 11:13:59;;;;;;;1.88;0.80;;;33.30;49.70;;;;;;5115579;28;20030;-64
2022/07/13 11:16:49;;;;;;;4.57;0.90;;;32.80;50.60;;;;;;5114710;28;20027;-64
2022/07/13 11:19:15;;;;;;;3.78;0.90;;;33.20;50.70;;;;;;5115975;28;20355;-62
2022/07/13 11:22:10;;;;;;;2.35;0.90;;;32.70;50.50;;;;;;5116712;27;20027;-63
2022/07/13 11:27:58;;;;;;;2.65;0.80;;;32.30;51.30;;;;;;5114687;28;20039;-62
2022/07/13 11:30:29;;;;;;;4.38;0.82;;;32.30;51.80;;;;;;5116201;28;20027;-63
2022/07/13 11:32:56;;;;;;;1.85;0.88;;;32.70;50.40;;;;;;5114313;28;20043;-65
2022/07/13 11:35:22;;;;;;;12.57;1.33;;;33.10;51.30;;;;;;5126095;28;20037;-64
2022/07/13 11:37:48;;;;;;;3.60;1.00;;;33.40;50.00;;;;;;5111767;28;20496;-64
2022/07/13 11:40:27;;;;;;;2.85;0.90;;;33.60;49.80;;;;;;5113296;28;20027;-65
2022/07/13 11:42:53;;;;;;;1.88;0.77;;;33.70;49.20;;;;;;5111610;28;20024;-64
2022/07/13 11:45:32;;;;;;;2.75;0.95;;;33.30;48.10;;;;;;5120048;28;20039;-64
2022/07/13 11:48:02;;;;;;;5.68;1.02;;;33.10;49.80;;;;;;5111829;28;20062;-63
2022/07/13 11:50:49;;;;;;;3.30;0.85;;;32.90;49.00;;;;;;5115053;28;20024;-65
2022/07/13 11:53:22;;;;;;;3.45;1.00;;;33.10;50.60;;;;;;5109868;28;20055;-63
2022/07/13 11:55:48;;;;;;;4.15;0.80;;;33.00;49.10;;;;;;5113449;28;20016;-63
2022/07/13 11:58:28;;;;;;;3.33;0.90;;;33.10;48.60;;;;;;5115499;28;20030;-63
2022/07/13 12:00:54;;;;;;;2.00;0.77;;;33.20;49.10;;;;;;5114956;28;20028;-64
2022/07/13 12:03:32;;;;;;;2.78;0.93;;;33.00;49.10;;;;;;5113835;28;20507;-63
2022/07/13 12:06:03;;;;;;;2.40;0.80;;;32.80;48.90;;;;;;5115969;28;20031;-63
2022/07/13 12:08:33;;;;;;;2.30;1.02;;;32.40;49.20;;;;;;5094473;28;20479;-64
2022/07/13 12:11:00;;;;;;;3.72;0.80;;;32.10;48.60;;;;;;5112264;28;20062;-62
2022/07/13 12:13:26;;;;;;;1.88;0.80;;;32.40;50.00;;;;;;5114125;28;20023;-64
2022/07/13 12:15:52;;;;;;;7.15;0.90;;;32.60;49.90;;;;;;5115916;28;20358;-64
2022/07/13 12:18:18;;;;;;;3.47;0.90;;;33.00;48.70;;;;;;5114440;28;20412;-63
2022/07/13 12:20:43;;;;;;;2.47;0.90;;;33.60;48.30;;;;;;5115064;28;20019;-64
2022/07/13 12:23:09;;;;;;;4.18;0.90;;;34.10;47.80;;;;;;5109175;28;20043;-64
2022/07/13 12:25:37;;;;;;;2.45;0.80;;;34.40;46.70;;;;;;5112939;28;20042;-64
2022/07/13 12:28:11;;;;;;;4.07;0.93;;;34.20;47.20;;;;;;5112503;28;20070;-64
2022/07/13 12:30:54;;;;;;;4.65;0.70;;;34.70;47.70;;;;;;5113908;28;20027;-64
2022/07/13 12:33:20;;;;;;;2.38;1.00;;;34.50;47.70;;;;;;5113830;28;20035;-64
2022/07/13 12:35:45;;;;;;;2.25;0.80;;;34.80;47.10;;;;;;5111620;28;20024;-64
2022/07/13 12:38:14;;;;;;;6.05;0.70;;;35.40;46.60;;;;;;5115891;28;20111;-65
2022/07/13 12:40:55;;;;;;;1.75;0.70;;;36.00;44.50;;;;;;5118311;28;20023;-65
2022/07/13 12:43:25;;;;;;;1.73;0.75;;;35.90;44.40;;;;;;5117541;28;20023;-65
2022/07/13 12:45:56;;;;;;;2.00;0.70;;;36.00;44.50;;;;;;5119266;28;20039;-65
2022/07/13 12:48:27;;;;;;;1.48;0.70;;;35.80;44.70;;;;;;5117376;28;20080;-65
2022/07/13 12:50:56;;;;;;;2.58;0.80;;;35.80;44.30;;;;;;5118118;28;20356;-65
2022/07/13 12:53:22;;;;;;;1.45;0.70;;;36.50;43.00;;;;;;5118148;28;20045;-65
2022/07/13 12:55:52;;;;;;;2.25;0.80;;;37.20;43.20;;;;;;5116764;28;20099;-66
2022/07/13 12:58:19;;;;;;;1.20;0.63;;;37.60;42.70;;;;;;5118108;27;20041;-65
2022/07/13 13:00:45;;;;;;;2.58;0.82;;;37.70;42.80;;;;;;5117156;27;20031;-65
2022/07/13 13:03:10;;;;;;;1.88;0.60;;;38.20;41.20;;;;;;5117873;28;20058;-65
2022/07/13 13:05:37;;;;;;;1.48;0.55;;;38.40;40.00;;;;;;5119039;28;20324;-65